sensor_id;sensor_type;location;lat;lon;timestamp;P1;durP1;ratioP1;P2;durP2;ratioP2
52668;SDS011;74205;52.786;6.892;2023-11-22T00:00:31;19.33;;;12.90;;
52668;SDS011;74205;52.786;6.892;2023-11-22T00:03:52;12.95;;;11.18;;
52668;SDS011;74205;52.786;6.892;2023-11-22T00:07:12;12.60;;;11.30;;
52668;SDS011;74205;52.786;6.892;2023-11-22T00:10:33;14.77;;;12.35;;
52668;SDS011;74205;52.786;6.892;2023-11-22T00:13:54;14.05;;;11.60;;
52668;SDS011;74205;52.786;6.892;2023-11-22T00:17:15;13.45;;;10.98;;
52668;SDS011;74205;52.786;6.892;2023-11-22T00:20:37;14.05;;;11.82;;
52668;SDS011;74205;52.786;6.892;2023-11-22T00:23:58;13.35;;;11.75;;
52668;SDS011;74205;52.786;6.892;2023-11-22T00:27:18;14.00;;;11.00;;
52668;SDS011;74205;52.786;6.892;2023-11-22T00:30:39;14.45;;;11.32;;
52668;SDS011;74205;52.786;6.892;2023-11-22T00:33:59;11.90;;;10.50;;
52668;SDS011;74205;52.786;6.892;2023-11-22T00:37:20;12.38;;;11.07;;
52668;SDS011;74205;52.786;6.892;2023-11-22T00:40:41;13.43;;;11.65;;
52668;SDS011;74205;52.786;6.892;2023-11-22T00:44:01;13.88;;;11.60;;
52668;SDS011;74205;52.786;6.892;2023-11-22T00:47:23;11.25;;;9.85;;
52668;SDS011;74205;52.786;6.892;2023-11-22T00:50:44;11.57;;;10.38;;
52668;SDS011;74205;52.786;6.892;2023-11-22T00:54:04;13.65;;;11.35;;
52668;SDS011;74205;52.786;6.892;2023-11-22T00:57:25;13.63;;;11.98;;
52668;SDS011;74205;52.786;6.892;2023-11-22T01:00:47;14.38;;;11.88;;
52668;SDS011;74205;52.786;6.892;2023-11-22T01:04:07;13.88;;;11.80;;
52668;SDS011;74205;52.786;6.892;2023-11-22T01:07:28;13.25;;;11.85;;
52668;SDS011;74205;52.786;6.892;2023-11-22T01:10:49;16.05;;;13.10;;
52668;SDS011;74205;52.786;6.892;2023-11-22T01:14:10;13.50;;;11.35;;
52668;SDS011;74205;52.786;6.892;2023-11-22T01:17:30;16.33;;;11.90;;
52668;SDS011;74205;52.786;6.892;2023-11-22T01:20:51;13.00;;;11.63;;
52668;SDS011;74205;52.786;6.892;2023-11-22T01:24:11;18.83;;;12.07;;
52668;SDS011;74205;52.786;6.892;2023-11-22T01:27:32;14.32;;;12.32;;
52668;SDS011;74205;52.786;6.892;2023-11-22T01:30:53;15.32;;;12.95;;
52668;SDS011;74205;52.786;6.892;2023-11-22T01:34:14;16.42;;;12.90;;
52668;SDS011;74205;52.786;6.892;2023-11-22T01:37:35;14.05;;;12.07;;
52668;SDS011;74205;52.786;6.892;2023-11-22T01:40:55;16.35;;;13.40;;
52668;SDS011;74205;52.786;6.892;2023-11-22T01:44:16;15.35;;;13.73;;
52668;SDS011;74205;52.786;6.892;2023-11-22T01:47:38;19.42;;;14.60;;
52668;SDS011;74205;52.786;6.892;2023-11-22T01:50:59;15.77;;;13.05;;
52668;SDS011;74205;52.786;6.892;2023-11-22T01:54:19;15.45;;;13.68;;
52668;SDS011;74205;52.786;6.892;2023-11-22T01:57:43;17.50;;;14.43;;
52668;SDS011;74205;52.786;6.892;2023-11-22T02:01:04;13.98;;;12.48;;
52668;SDS011;74205;52.786;6.892;2023-11-22T02:04:24;17.65;;;14.00;;
52668;SDS011;74205;52.786;6.892;2023-11-22T02:07:45;14.93;;;13.32;;
52668;SDS011;74205;52.786;6.892;2023-11-22T02:11:07;16.40;;;13.65;;
52668;SDS011;74205;52.786;6.892;2023-11-22T02:14:28;15.57;;;13.25;;
52668;SDS011;74205;52.786;6.892;2023-11-22T02:17:49;17.65;;;14.88;;
52668;SDS011;74205;52.786;6.892;2023-11-22T02:21:09;17.13;;;14.02;;
52668;SDS011;74205;52.786;6.892;2023-11-22T02:24:30;17.85;;;14.13;;
52668;SDS011;74205;52.786;6.892;2023-11-22T02:27:53;16.73;;;13.57;;
52668;SDS011;74205;52.786;6.892;2023-11-22T02:31:13;16.17;;;13.48;;
52668;SDS011;74205;52.786;6.892;2023-11-22T02:34:34;17.30;;;14.20;;
52668;SDS011;74205;52.786;6.892;2023-11-22T02:37:55;18.88;;;13.93;;
52668;SDS011;74205;52.786;6.892;2023-11-22T02:41:15;15.52;;;13.85;;
52668;SDS011;74205;52.786;6.892;2023-11-22T02:44:36;17.80;;;14.00;;
52668;SDS011;74205;52.786;6.892;2023-11-22T02:47:57;18.05;;;14.30;;
52668;SDS011;74205;52.786;6.892;2023-11-22T02:51:19;17.92;;;14.70;;
52668;SDS011;74205;52.786;6.892;2023-11-22T02:54:44;15.75;;;13.35;;
52668;SDS011;74205;52.786;6.892;2023-11-22T02:58:07;14.85;;;13.27;;
52668;SDS011;74205;52.786;6.892;2023-11-22T03:01:28;14.65;;;13.10;;
52668;SDS011;74205;52.786;6.892;2023-11-22T03:04:48;17.75;;;13.43;;
52668;SDS011;74205;52.786;6.892;2023-11-22T03:08:09;14.52;;;13.02;;
52668;SDS011;74205;52.786;6.892;2023-11-22T03:11:30;16.50;;;13.73;;
52668;SDS011;74205;52.786;6.892;2023-11-22T03:14:51;19.52;;;15.13;;
52668;SDS011;74205;52.786;6.892;2023-11-22T03:18:18;17.65;;;13.73;;
52668;SDS011;74205;52.786;6.892;2023-11-22T03:21:39;16.38;;;13.73;;
52668;SDS011;74205;52.786;6.892;2023-11-22T03:25:01;16.85;;;14.40;;
52668;SDS011;74205;52.786;6.892;2023-11-22T03:28:23;16.65;;;14.73;;
52668;SDS011;74205;52.786;6.892;2023-11-22T03:31:44;18.00;;;15.32;;
52668;SDS011;74205;52.786;6.892;2023-11-22T03:35:07;17.13;;;13.23;;
52668;SDS011;74205;52.786;6.892;2023-11-22T03:38:28;15.18;;;13.57;;
52668;SDS011;74205;52.786;6.892;2023-11-22T03:41:48;17.25;;;14.18;;
52668;SDS011;74205;52.786;6.892;2023-11-22T03:45:10;17.13;;;13.82;;
52668;SDS011;74205;52.786;6.892;2023-11-22T03:48:33;19.27;;;15.33;;
52668;SDS011;74205;52.786;6.892;2023-11-22T03:51:54;18.10;;;14.95;;
52668;SDS011;74205;52.786;6.892;2023-11-22T03:55:14;19.40;;;14.27;;
52668;SDS011;74205;52.786;6.892;2023-11-22T03:58:35;15.40;;;13.57;;
52668;SDS011;74205;52.786;6.892;2023-11-22T04:01:56;15.45;;;13.85;;
52668;SDS011;74205;52.786;6.892;2023-11-22T04:05:17;15.98;;;14.07;;
52668;SDS011;74205;52.786;6.892;2023-11-22T04:08:39;15.52;;;13.02;;
52668;SDS011;74205;52.786;6.892;2023-11-22T04:12:00;14.25;;;12.75;;
52668;SDS011;74205;52.786;6.892;2023-11-22T04:15:20;16.60;;;14.75;;
52668;SDS011;74205;52.786;6.892;2023-11-22T04:18:41;17.30;;;14.38;;
52668;SDS011;74205;52.786;6.892;2023-11-22T04:22:03;17.33;;;14.43;;
52668;SDS011;74205;52.786;6.892;2023-11-22T04:25:23;15.95;;;13.07;;
52668;SDS011;74205;52.786;6.892;2023-11-22T04:28:44;16.15;;;13.57;;
52668;SDS011;74205;52.786;6.892;2023-11-22T04:32:05;16.75;;;13.98;;
52668;SDS011;74205;52.786;6.892;2023-11-22T04:35:25;16.25;;;13.38;;
52668;SDS011;74205;52.786;6.892;2023-11-22T04:38:46;16.70;;;13.98;;
52668;SDS011;74205;52.786;6.892;2023-11-22T04:42:06;17.67;;;14.25;;
52668;SDS011;74205;52.786;6.892;2023-11-22T04:45:27;18.90;;;13.43;;
52668;SDS011;74205;52.786;6.892;2023-11-22T04:48:47;15.80;;;14.18;;
52668;SDS011;74205;52.786;6.892;2023-11-22T04:52:11;15.32;;;12.35;;
52668;SDS011;74205;52.786;6.892;2023-11-22T04:55:32;19.50;;;15.25;;
52668;SDS011;74205;52.786;6.892;2023-11-22T04:58:52;18.30;;;14.85;;
52668;SDS011;74205;52.786;6.892;2023-11-22T05:02:13;19.98;;;15.60;;
52668;SDS011;74205;52.786;6.892;2023-11-22T05:05:34;22.35;;;15.93;;
52668;SDS011;74205;52.786;6.892;2023-11-22T05:08:54;19.73;;;16.00;;
52668;SDS011;74205;52.786;6.892;2023-11-22T05:12:15;23.95;;;17.10;;
52668;SDS011;74205;52.786;6.892;2023-11-22T05:15:35;21.13;;;17.52;;
52668;SDS011;74205;52.786;6.892;2023-11-22T05:18:56;21.88;;;17.60;;
52668;SDS011;74205;52.786;6.892;2023-11-22T05:22:17;19.95;;;16.48;;
52668;SDS011;74205;52.786;6.892;2023-11-22T05:25:37;20.95;;;18.23;;
52668;SDS011;74205;52.786;6.892;2023-11-22T05:28:58;23.42;;;19.40;;
52668;SDS011;74205;52.786;6.892;2023-11-22T05:32:19;21.20;;;17.67;;
52668;SDS011;74205;52.786;6.892;2023-11-22T05:35:39;24.52;;;17.88;;
52668;SDS011;74205;52.786;6.892;2023-11-22T05:39:01;20.98;;;16.50;;
52668;SDS011;74205;52.786;6.892;2023-11-22T05:42:23;23.05;;;18.15;;
52668;SDS011;74205;52.786;6.892;2023-11-22T05:45:45;19.48;;;16.63;;
52668;SDS011;74205;52.786;6.892;2023-11-22T05:49:09;20.95;;;17.67;;
52668;SDS011;74205;52.786;6.892;2023-11-22T05:52:33;25.25;;;18.60;;
52668;SDS011;74205;52.786;6.892;2023-11-22T05:55:53;23.17;;;18.48;;
52668;SDS011;74205;52.786;6.892;2023-11-22T05:59:14;24.70;;;17.63;;
52668;SDS011;74205;52.786;6.892;2023-11-22T06:02:34;24.42;;;18.92;;
52668;SDS011;74205;52.786;6.892;2023-11-22T06:05:57;22.33;;;18.53;;
52668;SDS011;74205;52.786;6.892;2023-11-22T06:09:17;22.02;;;17.55;;
52668;SDS011;74205;52.786;6.892;2023-11-22T06:12:38;23.20;;;19.75;;
52668;SDS011;74205;52.786;6.892;2023-11-22T06:15:59;24.17;;;18.80;;
52668;SDS011;74205;52.786;6.892;2023-11-22T06:19:20;26.65;;;19.60;;
52668;SDS011;74205;52.786;6.892;2023-11-22T06:22:41;23.55;;;18.15;;
52668;SDS011;74205;52.786;6.892;2023-11-22T06:26:02;22.58;;;19.67;;
52668;SDS011;74205;52.786;6.892;2023-11-22T06:29:23;25.63;;;19.45;;
52668;SDS011;74205;52.786;6.892;2023-11-22T06:32:44;23.90;;;19.83;;
52668;SDS011;74205;52.786;6.892;2023-11-22T06:36:04;20.88;;;18.65;;
52668;SDS011;74205;52.786;6.892;2023-11-22T06:39:25;25.38;;;21.63;;
52668;SDS011;74205;52.786;6.892;2023-11-22T06:42:46;24.50;;;19.77;;
52668;SDS011;74205;52.786;6.892;2023-11-22T06:46:07;23.05;;;19.38;;
52668;SDS011;74205;52.786;6.892;2023-11-22T06:49:28;22.75;;;19.75;;
52668;SDS011;74205;52.786;6.892;2023-11-22T06:52:48;23.42;;;18.30;;
52668;SDS011;74205;52.786;6.892;2023-11-22T06:56:10;23.02;;;19.00;;
52668;SDS011;74205;52.786;6.892;2023-11-22T06:59:31;21.48;;;19.17;;
52668;SDS011;74205;52.786;6.892;2023-11-22T07:02:51;23.10;;;18.35;;
52668;SDS011;74205;52.786;6.892;2023-11-22T07:06:12;21.52;;;18.35;;
52668;SDS011;74205;52.786;6.892;2023-11-22T07:09:32;25.83;;;18.73;;
52668;SDS011;74205;52.786;6.892;2023-11-22T07:12:53;21.55;;;18.83;;
52668;SDS011;74205;52.786;6.892;2023-11-22T07:16:13;22.13;;;17.48;;
52668;SDS011;74205;52.786;6.892;2023-11-22T07:19:35;24.67;;;18.98;;
52668;SDS011;74205;52.786;6.892;2023-11-22T07:22:58;23.13;;;19.83;;
52668;SDS011;74205;52.786;6.892;2023-11-22T07:26:20;24.17;;;18.50;;
52668;SDS011;74205;52.786;6.892;2023-11-22T07:29:41;26.10;;;19.33;;
52668;SDS011;74205;52.786;6.892;2023-11-22T07:33:02;21.30;;;19.00;;
52668;SDS011;74205;52.786;6.892;2023-11-22T07:36:22;22.98;;;17.67;;
52668;SDS011;74205;52.786;6.892;2023-11-22T07:39:43;22.77;;;20.23;;
52668;SDS011;74205;52.786;6.892;2023-11-22T07:43:04;25.17;;;19.73;;
52668;SDS011;74205;52.786;6.892;2023-11-22T07:46:25;22.75;;;17.42;;
52668;SDS011;74205;52.786;6.892;2023-11-22T07:49:47;21.75;;;18.33;;
52668;SDS011;74205;52.786;6.892;2023-11-22T07:53:08;19.95;;;17.83;;
52668;SDS011;74205;52.786;6.892;2023-11-22T07:56:31;20.30;;;17.83;;
52668;SDS011;74205;52.786;6.892;2023-11-22T07:59:52;20.20;;;16.90;;
52668;SDS011;74205;52.786;6.892;2023-11-22T08:03:15;23.38;;;18.55;;
52668;SDS011;74205;52.786;6.892;2023-11-22T08:06:38;20.67;;;16.77;;
52668;SDS011;74205;52.786;6.892;2023-11-22T08:09:59;18.95;;;16.08;;
52668;SDS011;74205;52.786;6.892;2023-11-22T08:13:29;22.95;;;18.10;;
52668;SDS011;74205;52.786;6.892;2023-11-22T08:16:51;20.50;;;16.45;;
52668;SDS011;74205;52.786;6.892;2023-11-22T08:20:11;20.35;;;17.17;;
52668;SDS011;74205;52.786;6.892;2023-11-22T08:23:33;23.00;;;18.35;;
52668;SDS011;74205;52.786;6.892;2023-11-22T08:26:54;22.73;;;17.80;;
52668;SDS011;74205;52.786;6.892;2023-11-22T08:30:14;21.52;;;17.58;;
52668;SDS011;74205;52.786;6.892;2023-11-22T08:33:38;22.38;;;18.25;;
52668;SDS011;74205;52.786;6.892;2023-11-22T08:36:59;22.45;;;17.95;;
52668;SDS011;74205;52.786;6.892;2023-11-22T08:40:19;20.05;;;17.15;;
52668;SDS011;74205;52.786;6.892;2023-11-22T08:43:40;21.55;;;18.30;;
52668;SDS011;74205;52.786;6.892;2023-11-22T08:47:01;20.73;;;18.52;;
52668;SDS011;74205;52.786;6.892;2023-11-22T08:50:23;20.55;;;18.35;;
52668;SDS011;74205;52.786;6.892;2023-11-22T08:53:44;20.38;;;16.75;;
52668;SDS011;74205;52.786;6.892;2023-11-22T08:57:04;23.88;;;18.02;;
52668;SDS011;74205;52.786;6.892;2023-11-22T09:00:26;23.73;;;18.58;;
52668;SDS011;74205;52.786;6.892;2023-11-22T09:03:48;20.13;;;18.08;;
52668;SDS011;74205;52.786;6.892;2023-11-22T09:07:10;20.10;;;16.10;;
52668;SDS011;74205;52.786;6.892;2023-11-22T09:10:30;21.27;;;18.52;;
52668;SDS011;74205;52.786;6.892;2023-11-22T09:13:51;21.75;;;17.25;;
52668;SDS011;74205;52.786;6.892;2023-11-22T09:17:13;21.60;;;17.77;;
52668;SDS011;74205;52.786;6.892;2023-11-22T09:20:34;20.77;;;16.25;;
52668;SDS011;74205;52.786;6.892;2023-11-22T09:23:54;21.98;;;17.33;;
52668;SDS011;74205;52.786;6.892;2023-11-22T09:27:15;23.33;;;17.70;;
52668;SDS011;74205;52.786;6.892;2023-11-22T09:30:38;25.40;;;18.85;;
52668;SDS011;74205;52.786;6.892;2023-11-22T09:34:03;19.48;;;15.40;;
52668;SDS011;74205;52.786;6.892;2023-11-22T09:37:23;22.42;;;16.20;;
52668;SDS011;74205;52.786;6.892;2023-11-22T09:40:45;20.15;;;14.88;;
52668;SDS011;74205;52.786;6.892;2023-11-22T09:44:07;19.40;;;14.88;;
52668;SDS011;74205;52.786;6.892;2023-11-22T09:47:32;17.73;;;15.13;;
52668;SDS011;74205;52.786;6.892;2023-11-22T09:51:03;21.02;;;14.48;;
52668;SDS011;74205;52.786;6.892;2023-11-22T09:54:41;19.60;;;15.15;;
52668;SDS011;74205;52.786;6.892;2023-11-22T09:58:01;21.88;;;16.38;;
52668;SDS011;74205;52.786;6.892;2023-11-22T10:01:23;18.67;;;14.80;;
52668;SDS011;74205;52.786;6.892;2023-11-22T10:04:43;18.63;;;14.55;;
52668;SDS011;74205;52.786;6.892;2023-11-22T10:08:05;19.25;;;15.13;;
52668;SDS011;74205;52.786;6.892;2023-11-22T10:11:26;21.33;;;15.20;;
52668;SDS011;74205;52.786;6.892;2023-11-22T10:14:48;17.05;;;15.25;;
52668;SDS011;74205;52.786;6.892;2023-11-22T10:18:09;18.80;;;15.57;;
52668;SDS011;74205;52.786;6.892;2023-11-22T10:21:30;17.02;;;14.75;;
52668;SDS011;74205;52.786;6.892;2023-11-22T10:24:51;16.08;;;14.38;;
52668;SDS011;74205;52.786;6.892;2023-11-22T10:28:15;17.42;;;14.50;;
52668;SDS011;74205;52.786;6.892;2023-11-22T10:31:39;15.60;;;13.57;;
52668;SDS011;74205;52.786;6.892;2023-11-22T10:35:02;16.00;;;14.30;;
52668;SDS011;74205;52.786;6.892;2023-11-22T10:38:24;19.10;;;14.85;;
52668;SDS011;74205;52.786;6.892;2023-11-22T10:41:46;15.73;;;14.05;;
52668;SDS011;74205;52.786;6.892;2023-11-22T10:45:06;15.57;;;13.68;;
52668;SDS011;74205;52.786;6.892;2023-11-22T10:48:28;16.00;;;13.38;;
52668;SDS011;74205;52.786;6.892;2023-11-22T10:51:51;14.05;;;11.52;;
52668;SDS011;74205;52.786;6.892;2023-11-22T10:55:13;15.95;;;13.63;;
52668;SDS011;74205;52.786;6.892;2023-11-22T10:58:39;13.68;;;11.63;;
52668;SDS011;74205;52.786;6.892;2023-11-22T11:02:11;15.10;;;12.70;;
52668;SDS011;74205;52.786;6.892;2023-11-22T11:05:37;13.43;;;11.25;;
52668;SDS011;74205;52.786;6.892;2023-11-22T11:09:02;13.23;;;11.82;;
52668;SDS011;74205;52.786;6.892;2023-11-22T11:12:26;15.52;;;12.25;;
52668;SDS011;74205;52.786;6.892;2023-11-22T11:15:47;15.48;;;10.60;;
52668;SDS011;74205;52.786;6.892;2023-11-22T11:19:08;12.93;;;11.18;;
52668;SDS011;74205;52.786;6.892;2023-11-22T11:22:30;18.50;;;10.20;;
52668;SDS011;74205;52.786;6.892;2023-11-22T11:25:52;15.50;;;9.88;;
52668;SDS011;74205;52.786;6.892;2023-11-22T11:29:29;11.32;;;9.05;;
52668;SDS011;74205;52.786;6.892;2023-11-22T11:32:54;11.82;;;9.73;;
52668;SDS011;74205;52.786;6.892;2023-11-22T11:36:21;11.25;;;9.43;;
52668;SDS011;74205;52.786;6.892;2023-11-22T11:39:47;10.25;;;8.20;;
52668;SDS011;74205;52.786;6.892;2023-11-22T11:43:09;9.45;;;8.13;;
52668;SDS011;74205;52.786;6.892;2023-11-22T11:46:30;9.98;;;8.00;;
52668;SDS011;74205;52.786;6.892;2023-11-22T11:49:51;9.27;;;8.15;;
52668;SDS011;74205;52.786;6.892;2023-11-22T11:53:13;10.32;;;8.07;;
52668;SDS011;74205;52.786;6.892;2023-11-22T11:56:33;12.52;;;8.27;;
52668;SDS011;74205;52.786;6.892;2023-11-22T11:59:54;10.55;;;6.53;;
52668;SDS011;74205;52.786;6.892;2023-11-22T12:03:16;7.63;;;5.55;;
52668;SDS011;74205;52.786;6.892;2023-11-22T12:06:40;8.95;;;5.88;;
52668;SDS011;74205;52.786;6.892;2023-11-22T12:10:01;7.72;;;5.75;;
52668;SDS011;74205;52.786;6.892;2023-11-22T12:13:22;6.30;;;5.05;;
52668;SDS011;74205;52.786;6.892;2023-11-22T12:16:43;6.80;;;5.07;;
52668;SDS011;74205;52.786;6.892;2023-11-22T12:20:14;6.85;;;4.82;;
52668;SDS011;74205;52.786;6.892;2023-11-22T12:23:37;6.43;;;4.80;;
52668;SDS011;74205;52.786;6.892;2023-11-22T12:26:58;6.70;;;4.70;;
52668;SDS011;74205;52.786;6.892;2023-11-22T12:30:29;6.50;;;4.70;;
52668;SDS011;74205;52.786;6.892;2023-11-22T12:33:54;6.03;;;4.20;;
52668;SDS011;74205;52.786;6.892;2023-11-22T12:37:21;5.95;;;4.50;;
52668;SDS011;74205;52.786;6.892;2023-11-22T12:40:43;8.50;;;5.07;;
52668;SDS011;74205;52.786;6.892;2023-11-22T12:44:06;6.38;;;4.70;;
52668;SDS011;74205;52.786;6.892;2023-11-22T12:47:31;6.35;;;5.00;;
52668;SDS011;74205;52.786;6.892;2023-11-22T12:50:55;6.57;;;4.80;;
52668;SDS011;74205;52.786;6.892;2023-11-22T12:54:17;6.13;;;4.47;;
52668;SDS011;74205;52.786;6.892;2023-11-22T12:57:41;7.18;;;5.30;;
52668;SDS011;74205;52.786;6.892;2023-11-22T13:04:24;6.47;;;4.80;;
52668;SDS011;74205;52.786;6.892;2023-11-22T13:07:45;6.43;;;4.78;;
52668;SDS011;74205;52.786;6.892;2023-11-22T13:11:05;6.05;;;4.50;;
52668;SDS011;74205;52.786;6.892;2023-11-22T13:14:27;7.57;;;4.80;;
52668;SDS011;74205;52.786;6.892;2023-11-22T13:17:55;6.60;;;5.45;;
52668;SDS011;74205;52.786;6.892;2023-11-22T13:21:16;9.07;;;6.05;;
52668;SDS011;74205;52.786;6.892;2023-11-22T13:24:36;6.93;;;5.40;;
52668;SDS011;74205;52.786;6.892;2023-11-22T13:27:57;7.60;;;6.25;;
52668;SDS011;74205;52.786;6.892;2023-11-22T13:31:19;8.93;;;6.13;;
52668;SDS011;74205;52.786;6.892;2023-11-22T13:34:41;8.55;;;6.13;;
52668;SDS011;74205;52.786;6.892;2023-11-22T13:38:02;7.93;;;6.28;;
52668;SDS011;74205;52.786;6.892;2023-11-22T13:41:27;6.75;;;5.90;;
52668;SDS011;74205;52.786;6.892;2023-11-22T13:44:47;6.30;;;5.57;;
52668;SDS011;74205;52.786;6.892;2023-11-22T13:48:08;8.43;;;6.63;;
52668;SDS011;74205;52.786;6.892;2023-11-22T13:51:31;12.97;;;6.83;;
52668;SDS011;74205;52.786;6.892;2023-11-22T13:54:52;7.03;;;5.85;;
52668;SDS011;74205;52.786;6.892;2023-11-22T13:58:16;7.53;;;5.45;;
52668;SDS011;74205;52.786;6.892;2023-11-22T14:01:36;7.20;;;5.65;;
52668;SDS011;74205;52.786;6.892;2023-11-22T14:04:59;7.43;;;6.13;;
52668;SDS011;74205;52.786;6.892;2023-11-22T14:08:21;8.63;;;6.40;;
52668;SDS011;74205;52.786;6.892;2023-11-22T14:11:42;10.20;;;6.43;;
52668;SDS011;74205;52.786;6.892;2023-11-22T14:15:02;7.10;;;6.18;;
52668;SDS011;74205;52.786;6.892;2023-11-22T14:18:26;7.38;;;5.82;;
52668;SDS011;74205;52.786;6.892;2023-11-22T14:21:47;9.32;;;6.55;;
52668;SDS011;74205;52.786;6.892;2023-11-22T14:25:07;6.07;;;5.05;;
52668;SDS011;74205;52.786;6.892;2023-11-22T14:28:31;8.68;;;6.90;;
52668;SDS011;74205;52.786;6.892;2023-11-22T14:31:53;8.90;;;6.63;;
52668;SDS011;74205;52.786;6.892;2023-11-22T14:35:14;7.82;;;5.90;;
52668;SDS011;74205;52.786;6.892;2023-11-22T14:38:34;10.55;;;6.88;;
52668;SDS011;74205;52.786;6.892;2023-11-22T14:41:55;6.40;;;5.63;;
52668;SDS011;74205;52.786;6.892;2023-11-22T14:45:16;7.25;;;6.03;;
52668;SDS011;74205;52.786;6.892;2023-11-22T14:48:36;8.13;;;6.93;;
52668;SDS011;74205;52.786;6.892;2023-11-22T14:51:57;8.73;;;6.60;;
52668;SDS011;74205;52.786;6.892;2023-11-22T14:55:18;7.82;;;6.68;;
52668;SDS011;74205;52.786;6.892;2023-11-22T14:58:40;8.47;;;7.07;;
52668;SDS011;74205;52.786;6.892;2023-11-22T15:02:01;8.88;;;7.03;;
52668;SDS011;74205;52.786;6.892;2023-11-22T15:05:24;8.18;;;7.10;;
52668;SDS011;74205;52.786;6.892;2023-11-22T15:08:46;9.65;;;7.35;;
52668;SDS011;74205;52.786;6.892;2023-11-22T15:12:07;10.73;;;7.30;;
52668;SDS011;74205;52.786;6.892;2023-11-22T15:15:29;7.97;;;7.10;;
52668;SDS011;74205;52.786;6.892;2023-11-22T15:18:50;8.32;;;7.38;;
52668;SDS011;74205;52.786;6.892;2023-11-22T15:22:10;11.02;;;7.78;;
52668;SDS011;74205;52.786;6.892;2023-11-22T15:25:31;9.38;;;8.20;;
52668;SDS011;74205;52.786;6.892;2023-11-22T15:28:52;9.63;;;8.18;;
52668;SDS011;74205;52.786;6.892;2023-11-22T15:32:12;10.25;;;7.72;;
52668;SDS011;74205;52.786;6.892;2023-11-22T15:35:34;8.18;;;7.32;;
52668;SDS011;74205;52.786;6.892;2023-11-22T15:38:54;10.15;;;7.75;;
52668;SDS011;74205;52.786;6.892;2023-11-22T15:42:15;11.35;;;8.00;;
52668;SDS011;74205;52.786;6.892;2023-11-22T15:45:36;21.38;;;10.70;;
52668;SDS011;74205;52.786;6.892;2023-11-22T15:48:57;9.18;;;8.18;;
52668;SDS011;74205;52.786;6.892;2023-11-22T15:52:18;11.23;;;8.45;;
52668;SDS011;74205;52.786;6.892;2023-11-22T15:55:41;10.05;;;8.57;;
52668;SDS011;74205;52.786;6.892;2023-11-22T15:59:02;10.10;;;8.65;;
52668;SDS011;74205;52.786;6.892;2023-11-22T16:02:23;11.50;;;8.60;;
52668;SDS011;74205;52.786;6.892;2023-11-22T16:05:44;12.20;;;9.90;;
52668;SDS011;74205;52.786;6.892;2023-11-22T16:09:08;12.15;;;9.57;;
52668;SDS011;74205;52.786;6.892;2023-11-22T16:12:32;10.70;;;9.60;;
52668;SDS011;74205;52.786;6.892;2023-11-22T16:15:53;12.13;;;10.30;;
52668;SDS011;74205;52.786;6.892;2023-11-22T16:19:19;13.98;;;10.40;;
52668;SDS011;74205;52.786;6.892;2023-11-22T16:22:40;13.10;;;10.55;;
52668;SDS011;74205;52.786;6.892;2023-11-22T16:26:04;14.98;;;11.30;;
52668;SDS011;74205;52.786;6.892;2023-11-22T16:29:25;14.57;;;11.52;;
52668;SDS011;74205;52.786;6.892;2023-11-22T16:32:46;13.30;;;11.30;;
52668;SDS011;74205;52.786;6.892;2023-11-22T16:36:07;14.73;;;11.57;;
52668;SDS011;74205;52.786;6.892;2023-11-22T16:39:28;18.75;;;13.57;;
52668;SDS011;74205;52.786;6.892;2023-11-22T16:42:50;17.38;;;14.00;;
52668;SDS011;74205;52.786;6.892;2023-11-22T16:46:10;17.33;;;13.65;;
52668;SDS011;74205;52.786;6.892;2023-11-22T16:49:31;18.48;;;14.48;;
52668;SDS011;74205;52.786;6.892;2023-11-22T16:52:51;17.80;;;15.82;;
52668;SDS011;74205;52.786;6.892;2023-11-22T16:56:12;18.60;;;14.63;;
52668;SDS011;74205;52.786;6.892;2023-11-22T16:59:33;20.75;;;15.57;;
52668;SDS011;74205;52.786;6.892;2023-11-22T17:02:53;19.70;;;15.95;;
52668;SDS011;74205;52.786;6.892;2023-11-22T17:06:18;23.65;;;17.08;;
52668;SDS011;74205;52.786;6.892;2023-11-22T17:09:39;26.52;;;17.25;;
52668;SDS011;74205;52.786;6.892;2023-11-22T17:13:01;22.50;;;18.98;;
52668;SDS011;74205;52.786;6.892;2023-11-22T17:16:21;22.38;;;17.17;;
52668;SDS011;74205;52.786;6.892;2023-11-22T17:19:42;23.52;;;18.52;;
52668;SDS011;74205;52.786;6.892;2023-11-22T17:23:03;25.73;;;20.55;;
52668;SDS011;74205;52.786;6.892;2023-11-22T17:26:23;24.88;;;18.50;;
52668;SDS011;74205;52.786;6.892;2023-11-22T17:29:44;28.27;;;20.63;;
52668;SDS011;74205;52.786;6.892;2023-11-22T17:33:04;30.08;;;21.98;;
52668;SDS011;74205;52.786;6.892;2023-11-22T17:36:25;28.13;;;21.75;;
52668;SDS011;74205;52.786;6.892;2023-11-22T17:39:46;29.40;;;21.90;;
52668;SDS011;74205;52.786;6.892;2023-11-22T17:43:07;31.38;;;23.38;;
52668;SDS011;74205;52.786;6.892;2023-11-22T17:46:27;30.73;;;22.60;;
52668;SDS011;74205;52.786;6.892;2023-11-22T17:49:49;28.33;;;21.65;;
52668;SDS011;74205;52.786;6.892;2023-11-22T17:53:11;30.35;;;21.83;;
52668;SDS011;74205;52.786;6.892;2023-11-22T17:56:31;31.80;;;23.27;;
52668;SDS011;74205;52.786;6.892;2023-11-22T17:59:52;35.28;;;24.23;;
52668;SDS011;74205;52.786;6.892;2023-11-22T18:03:12;40.88;;;25.15;;
52668;SDS011;74205;52.786;6.892;2023-11-22T18:06:33;32.78;;;23.67;;
52668;SDS011;74205;52.786;6.892;2023-11-22T18:09:54;34.40;;;24.30;;
52668;SDS011;74205;52.786;6.892;2023-11-22T18:13:15;33.55;;;23.50;;
52668;SDS011;74205;52.786;6.892;2023-11-22T18:16:36;38.50;;;25.38;;
52668;SDS011;74205;52.786;6.892;2023-11-22T18:19:57;35.65;;;26.90;;
52668;SDS011;74205;52.786;6.892;2023-11-22T18:23:18;37.22;;;25.80;;
52668;SDS011;74205;52.786;6.892;2023-11-22T18:26:38;36.88;;;26.70;;
52668;SDS011;74205;52.786;6.892;2023-11-22T18:29:59;36.42;;;25.35;;
52668;SDS011;74205;52.786;6.892;2023-11-22T18:33:19;33.78;;;23.83;;
52668;SDS011;74205;52.786;6.892;2023-11-22T18:36:40;36.65;;;23.38;;
52668;SDS011;74205;52.786;6.892;2023-11-22T18:40:00;34.42;;;24.30;;
52668;SDS011;74205;52.786;6.892;2023-11-22T18:43:22;35.08;;;25.38;;
52668;SDS011;74205;52.786;6.892;2023-11-22T18:46:43;37.70;;;24.73;;
52668;SDS011;74205;52.786;6.892;2023-11-22T18:50:05;34.08;;;23.67;;
52668;SDS011;74205;52.786;6.892;2023-11-22T18:53:26;30.48;;;21.88;;
52668;SDS011;74205;52.786;6.892;2023-11-22T18:56:47;35.75;;;22.92;;
52668;SDS011;74205;52.786;6.892;2023-11-22T19:00:08;34.97;;;22.98;;
52668;SDS011;74205;52.786;6.892;2023-11-22T19:03:30;33.23;;;23.30;;
52668;SDS011;74205;52.786;6.892;2023-11-22T19:06:51;30.80;;;21.90;;
52668;SDS011;74205;52.786;6.892;2023-11-22T19:10:11;32.53;;;21.00;;
52668;SDS011;74205;52.786;6.892;2023-11-22T19:13:32;33.50;;;23.13;;
52668;SDS011;74205;52.786;6.892;2023-11-22T19:16:52;32.83;;;21.63;;
52668;SDS011;74205;52.786;6.892;2023-11-22T19:20:13;31.17;;;22.67;;
52668;SDS011;74205;52.786;6.892;2023-11-22T19:23:34;29.67;;;22.58;;
52668;SDS011;74205;52.786;6.892;2023-11-22T19:26:57;32.47;;;20.55;;
52668;SDS011;74205;52.786;6.892;2023-11-22T19:30:17;33.20;;;22.40;;
52668;SDS011;74205;52.786;6.892;2023-11-22T19:33:39;30.75;;;20.35;;
52668;SDS011;74205;52.786;6.892;2023-11-22T19:36:59;30.80;;;20.88;;
52668;SDS011;74205;52.786;6.892;2023-11-22T19:40:20;33.20;;;21.60;;
52668;SDS011;74205;52.786;6.892;2023-11-22T19:43:41;29.75;;;19.45;;
52668;SDS011;74205;52.786;6.892;2023-11-22T19:47:01;27.23;;;18.80;;